TKJ4189 LTFG-LTAC
Flight info
| Callsign | TKJ4189 |
|---|---|
| Flight time | N/A |
| Altitude | 32000 |
| Route | ELROP UT339 MUT UA28 TELVO |
| Aircraft | A21N/M-SDE3FGHIRWY/LB1 |
Departure
| Time | 2026-05-05 12:48 |
|---|---|
| Airport | Gazipaşa-Alanya Airport (LTFG) |
Arrival
| Time | N/A |
|---|---|
| Airport | Esenboğa International Airport (LTAC) |
| Time | Latitude | Longitude | Altitude | Speed | Heading |
|---|---|---|---|---|---|
| 2026-05-05 12:26 | 36.29805 | 32.30384 | 114 ft | 0 kts | 170° |
| 2026-05-05 12:37 | 36.29819 | 32.30381 | 114 ft | 2 kts | 169° |
| 2026-05-05 12:37 | 36.29834 | 32.30377 | 114 ft | 2 kts | 173° |
| 2026-05-05 12:37 | 36.29848 | 32.30383 | 115 ft | 2 kts | 227° |
| 2026-05-05 12:37 | 36.29854 | 32.30394 | 115 ft | 0 kts | 258° |
| 2026-05-05 12:38 | 36.29855 | 32.30403 | 116 ft | 1 kts | 262° |
| 2026-05-05 12:38 | 36.29855 | 32.30404 | 116 ft | 0 kts | 262° |
| 2026-05-05 12:42 | 36.29855 | 32.30403 | 116 ft | 0 kts | 262° |
| 2026-05-05 12:42 | 36.29853 | 32.30389 | 115 ft | 3 kts | 261° |
| 2026-05-05 12:43 | 36.29843 | 32.30312 | 111 ft | 12 kts | 261° |
| 2026-05-05 12:43 | 36.29839 | 32.30233 | 108 ft | 7 kts | 266° |
| 2026-05-05 12:43 | 36.29834 | 32.30177 | 106 ft | 5 kts | 293° |
| 2026-05-05 12:43 | 36.29849 | 32.30162 | 105 ft | 0 kts | 351° |
| 2026-05-05 12:45 | 36.29852 | 32.30162 | 105 ft | 2 kts | 350° |
| 2026-05-05 12:45 | 36.29894 | 32.30152 | 105 ft | 8 kts | 350° |
| 2026-05-05 12:45 | 36.29939 | 32.30177 | 106 ft | 6 kts | 71° |
| 2026-05-05 12:46 | 36.29951 | 32.30254 | 110 ft | 12 kts | 80° |
| 2026-05-05 12:46 | 36.29967 | 32.30387 | 117 ft | 18 kts | 82° |
| 2026-05-05 12:46 | 36.29988 | 32.30562 | 124 ft | 21 kts | 81° |
| 2026-05-05 12:46 | 36.30013 | 32.30764 | 132 ft | 25 kts | 82° |
| 2026-05-05 12:47 | 36.30040 | 32.30946 | 137 ft | 17 kts | 63° |
| 2026-05-05 12:47 | 36.30062 | 32.31021 | 139 ft | 5 kts | 113° |
| 2026-05-05 12:47 | 36.30043 | 32.31009 | 139 ft | 6 kts | 258° |
| 2026-05-05 12:47 | 36.30042 | 32.31003 | 139 ft | 0 kts | 259° |
| 2026-05-05 12:48 | 36.30017 | 32.30806 | 134 ft | 65 kts | 261° |
| 2026-05-05 12:48 | 36.29909 | 32.29895 | 96 ft | 144 kts | 261° |
| 2026-05-05 12:48 | 36.29747 | 32.28610 | 675 ft | 153 kts | 260° |
| 2026-05-05 12:48 | 36.29575 | 32.27366 | 1527 ft | 147 kts | 261° |
| 2026-05-05 12:49 | 36.29413 | 32.26172 | 2216 ft | 141 kts | 263° |
| 2026-05-05 12:49 | 36.29261 | 32.24922 | 2518 ft | 153 kts | 264° |
| 2026-05-05 12:49 | 36.29099 | 32.23561 | 2813 ft | 167 kts | 264° |
| 2026-05-05 12:49 | 36.28921 | 32.22084 | 3114 ft | 182 kts | 263° |
| 2026-05-05 12:50 | 36.28627 | 32.20501 | 3401 ft | 198 kts | 249° |
| 2026-05-05 12:50 | 36.27695 | 32.19150 | 3671 ft | 218 kts | 215° |
| 2026-05-05 12:50 | 36.26188 | 32.18606 | 3912 ft | 241 kts | 178° |
| 2026-05-05 12:50 | 36.24461 | 32.18909 | 4274 ft | 260 kts | 169° |
| 2026-05-05 12:51 | 36.22626 | 32.19298 | 4751 ft | 276 kts | 170° |
| 2026-05-05 12:51 | 36.20750 | 32.19879 | 5468 ft | 280 kts | 152° |
| 2026-05-05 12:51 | 36.19313 | 32.21450 | 6232 ft | 279 kts | 120° |
| 2026-05-05 12:51 | 36.18701 | 32.23651 | 6980 ft | 275 kts | 91° |
| 2026-05-05 12:52 | 36.18886 | 32.25979 | 7709 ft | 275 kts | 77° |
| 2026-05-05 12:52 | 36.19214 | 32.28314 | 8407 ft | 280 kts | 77° |
| 2026-05-05 12:52 | 36.19533 | 32.30721 | 9121 ft | 284 kts | 77° |
| 2026-05-05 12:52 | 36.19837 | 32.33133 | 9822 ft | 287 kts | 77° |
| 2026-05-05 12:53 | 36.20132 | 32.35551 | 10452 ft | 292 kts | 77° |
| 2026-05-05 12:53 | 36.20443 | 32.38124 | 10790 ft | 308 kts | 77° |
| 2026-05-05 12:53 | 36.20766 | 32.40812 | 11086 ft | 325 kts | 78° |
| 2026-05-05 12:53 | 36.21102 | 32.43662 | 11384 ft | 340 kts | 78° |
| 2026-05-05 12:54 | 36.21794 | 32.49581 | 12469 ft | 353 kts | 78° |
| 2026-05-05 12:54 | 36.22231 | 32.52525 | 13052 ft | 353 kts | 68° |
| 2026-05-05 12:54 | 36.23407 | 32.55142 | 13608 ft | 346 kts | 45° |
| 2026-05-05 12:55 | 36.25253 | 32.57002 | 14219 ft | 340 kts | 25° |
| 2026-05-05 12:55 | 36.27466 | 32.57979 | 14814 ft | 339 kts | 12° |
| 2026-05-05 12:55 | 36.29759 | 32.58687 | 15413 ft | 341 kts | 12° |
| 2026-05-05 12:55 | 36.32068 | 32.59405 | 15963 ft | 344 kts | 11° |
| 2026-05-05 12:56 | 36.34407 | 32.60143 | 16395 ft | 350 kts | 12° |
| 2026-05-05 12:56 | 36.36772 | 32.60893 | 16922 ft | 353 kts | 12° |
| 2026-05-05 12:56 | 36.39158 | 32.61654 | 17485 ft | 354 kts | 11° |
| 2026-05-05 12:56 | 36.41549 | 32.62419 | 18021 ft | 356 kts | 11° |
| 2026-05-05 12:57 | 36.43958 | 32.63190 | 18516 ft | 359 kts | 11° |
| 2026-05-05 12:57 | 36.46366 | 32.63962 | 18994 ft | 361 kts | 11° |
| 2026-05-05 12:57 | 36.48771 | 32.64936 | 19443 ft | 367 kts | 20° |
| 2026-05-05 12:57 | 36.50961 | 32.66669 | 19889 ft | 377 kts | 34° |
| 2026-05-05 12:58 | 36.52764 | 32.69080 | 20310 ft | 389 kts | 47° |
| 2026-05-05 12:58 | 36.54343 | 32.71835 | 20745 ft | 392 kts | 48° |
| 2026-05-05 12:58 | 36.55889 | 32.74598 | 21111 ft | 396 kts | 48° |
| 2026-05-05 12:58 | 36.57472 | 32.77432 | 21509 ft | 398 kts | 48° |
| 2026-05-05 12:59 | 36.59040 | 32.80240 | 21908 ft | 400 kts | 48° |
| 2026-05-05 12:59 | 36.60633 | 32.83087 | 22285 ft | 402 kts | 47° |
| 2026-05-05 12:59 | 36.62242 | 32.85960 | 22671 ft | 404 kts | 47° |
| 2026-05-05 13:00 | 36.65454 | 32.91700 | 23410 ft | 408 kts | 47° |
| 2026-05-05 13:00 | 36.67077 | 32.94600 | 23732 ft | 410 kts | 46° |
| 2026-05-05 13:01 | 36.71999 | 33.03402 | 24770 ft | 416 kts | 46° |
| 2026-05-05 13:01 | 36.73656 | 33.06372 | 25103 ft | 418 kts | 46° |
| 2026-05-05 13:01 | 36.75297 | 33.09323 | 25415 ft | 420 kts | 46° |
| 2026-05-05 13:01 | 36.76968 | 33.12326 | 25660 ft | 423 kts | 46° |
| 2026-05-05 13:02 | 36.78641 | 33.15332 | 25963 ft | 425 kts | 47° |
| 2026-05-05 13:02 | 36.80331 | 33.18380 | 26290 ft | 426 kts | 47° |
| 2026-05-05 13:02 | 36.82012 | 33.21411 | 26546 ft | 428 kts | 47° |
| 2026-05-05 13:02 | 36.83773 | 33.24404 | 26804 ft | 423 kts | 40° |
| 2026-05-05 13:03 | 36.86007 | 33.26676 | 27043 ft | 407 kts | 23° |
| 2026-05-05 13:03 | 36.88570 | 33.27975 | 27358 ft | 395 kts | 8° |
| 2026-05-05 13:03 | 36.91269 | 33.28351 | 27598 ft | 388 kts | 354° |
| 2026-05-05 13:03 | 36.93953 | 33.28025 | 27824 ft | 388 kts | 350° |
| 2026-05-05 13:04 | 36.96614 | 33.27639 | 28062 ft | 389 kts | 350° |
| 2026-05-05 13:04 | 36.99340 | 33.27245 | 28306 ft | 391 kts | 350° |
| 2026-05-05 13:04 | 37.02051 | 33.26851 | 28588 ft | 392 kts | 350° |
| 2026-05-05 13:04 | 37.04729 | 33.26461 | 28960 ft | 390 kts | 350° |
| 2026-05-05 13:05 | 37.07410 | 33.26071 | 29366 ft | 387 kts | 349° |
| 2026-05-05 13:05 | 37.10074 | 33.25680 | 29699 ft | 386 kts | 349° |
| 2026-05-05 13:05 | 37.12735 | 33.25288 | 30042 ft | 386 kts | 349° |
| 2026-05-05 13:05 | 37.15413 | 33.24892 | 30409 ft | 385 kts | 349° |
| 2026-05-05 13:06 | 37.18079 | 33.24497 | 30655 ft | 386 kts | 349° |
| 2026-05-05 13:06 | 37.20755 | 33.24098 | 30872 ft | 388 kts | 349° |
| 2026-05-05 13:06 | 37.23433 | 33.23701 | 31073 ft | 390 kts | 349° |
| 2026-05-05 13:06 | 37.26105 | 33.23304 | 31287 ft | 391 kts | 349° |
| 2026-05-05 13:07 | 37.28840 | 33.22897 | 31475 ft | 393 kts | 350° |
| 2026-05-05 13:07 | 37.31559 | 33.22494 | 31686 ft | 395 kts | 350° |
| 2026-05-05 13:07 | 37.34295 | 33.22088 | 31890 ft | 397 kts | 350° |
| 2026-05-05 13:07 | 37.37042 | 33.21680 | 31985 ft | 399 kts | 349° |
| 2026-05-05 13:08 | 37.42577 | 33.20858 | 31995 ft | 400 kts | 349° |
| 2026-05-05 13:08 | 37.48115 | 33.20033 | 31998 ft | 400 kts | 350° |
| 2026-05-05 13:09 | 37.53630 | 33.19208 | 31994 ft | 400 kts | 350° |
| 2026-05-05 13:09 | 37.59134 | 33.18388 | 31995 ft | 400 kts | 350° |
| 2026-05-05 13:10 | 37.64690 | 33.17557 | 31998 ft | 399 kts | 350° |
| 2026-05-05 13:10 | 37.70228 | 33.16723 | 32001 ft | 400 kts | 350° |
| 2026-05-05 13:11 | 37.75734 | 33.15898 | 32000 ft | 400 kts | 350° |
| 2026-05-05 13:11 | 37.81205 | 33.15078 | 31995 ft | 399 kts | 350° |
| 2026-05-05 13:12 | 37.86747 | 33.14243 | 31998 ft | 400 kts | 350° |
| 2026-05-05 13:12 | 37.92287 | 33.13407 | 31996 ft | 399 kts | 350° |
| 2026-05-05 13:13 | 37.97819 | 33.12575 | 31991 ft | 399 kts | 350° |
| 2026-05-05 13:13 | 38.03387 | 33.11735 | 31983 ft | 399 kts | 351° |
| 2026-05-05 13:14 | 38.08911 | 33.10929 | 31985 ft | 399 kts | 351° |
| 2026-05-05 13:14 | 38.13951 | 33.10194 | 31988 ft | 400 kts | 351° |
| 2026-05-05 13:15 | 38.19508 | 33.09385 | 31991 ft | 400 kts | 351° |
| 2026-05-05 13:15 | 38.25035 | 33.08579 | 31987 ft | 398 kts | 351° |
| 2026-05-05 13:16 | 38.30575 | 33.07772 | 31979 ft | 399 kts | 351° |
| 2026-05-05 13:16 | 38.36131 | 33.06959 | 31988 ft | 400 kts | 351° |
| 2026-05-05 13:17 | 38.41663 | 33.06147 | 31989 ft | 399 kts | 351° |
| 2026-05-05 13:17 | 38.47176 | 33.05337 | 31987 ft | 398 kts | 351° |
| 2026-05-05 13:18 | 38.52678 | 33.04528 | 31985 ft | 398 kts | 351° |
| 2026-05-05 13:18 | 38.58189 | 33.03716 | 31988 ft | 399 kts | 351° |
| 2026-05-05 13:19 | 38.63730 | 33.02898 | 31987 ft | 400 kts | 351° |
| 2026-05-05 13:19 | 38.69266 | 33.02082 | 31983 ft | 399 kts | 351° |
| 2026-05-05 13:20 | 38.74787 | 33.01265 | 31983 ft | 400 kts | 351° |
| 2026-05-05 13:20 | 38.80309 | 33.00446 | 31986 ft | 399 kts | 352° |
| 2026-05-05 13:21 | 38.85799 | 32.99632 | 31978 ft | 400 kts | 351° |
| 2026-05-05 13:21 | 38.91345 | 32.98803 | 31979 ft | 399 kts | 352° |
| 2026-05-05 13:22 | 38.96850 | 32.97986 | 31984 ft | 399 kts | 352° |
| 2026-05-05 13:22 | 39.02373 | 32.97164 | 31992 ft | 399 kts | 351° |
| 2026-05-05 13:23 | 39.07863 | 32.96344 | 31986 ft | 399 kts | 351° |
| 2026-05-05 13:23 | 39.13412 | 32.95515 | 31991 ft | 400 kts | 352° |
| 2026-05-05 13:24 | 39.18940 | 32.94687 | 31987 ft | 400 kts | 352° |
| 2026-05-05 13:24 | 39.24453 | 32.93888 | 31991 ft | 401 kts | 352° |
| 2026-05-05 13:25 | 39.30035 | 32.93135 | 31978 ft | 402 kts | 353° |
| 2026-05-05 13:25 | 39.35635 | 32.92835 | 31973 ft | 403 kts | 358° |
| 2026-05-05 13:26 | 39.38441 | 32.92959 | 31778 ft | 404 kts | 1° |
| 2026-05-05 13:26 | 39.41226 | 32.93268 | 31391 ft | 404 kts | 4° |
| 2026-05-05 13:26 | 39.44011 | 32.93767 | 30839 ft | 402 kts | 6° |
| 2026-05-05 13:26 | 39.46728 | 32.94367 | 30181 ft | 402 kts | 7° |
| 2026-05-05 13:27 | 39.49483 | 32.94997 | 29490 ft | 401 kts | 7° |
| 2026-05-05 13:27 | 39.52237 | 32.95635 | 28803 ft | 400 kts | 8° |
| 2026-05-05 13:27 | 39.54955 | 32.96266 | 28087 ft | 400 kts | 8° |
| 2026-05-05 13:27 | 39.57654 | 32.96892 | 27552 ft | 395 kts | 8° |
| 2026-05-05 13:28 | 39.60326 | 32.97701 | 27064 ft | 392 kts | 13° |
| 2026-05-05 13:28 | 39.62917 | 32.98819 | 26579 ft | 388 kts | 18° |
| 2026-05-05 13:28 | 39.65380 | 33.00212 | 26084 ft | 386 kts | 23° |
| 2026-05-05 13:28 | 39.67747 | 33.01779 | 25593 ft | 383 kts | 24° |
| 2026-05-05 13:29 | 39.70109 | 33.03386 | 25101 ft | 380 kts | 25° |
| 2026-05-05 13:29 | 39.72413 | 33.04968 | 24609 ft | 376 kts | 25° |
| 2026-05-05 13:29 | 39.74719 | 33.06551 | 24115 ft | 373 kts | 25° |